Time;durP1;ratioP1;P1;durP2;ratioP2;P2;SDS_P1;SDS_P2;PMS_P1;PMS_P2;Temp;Humidity;BMP_temperature;BMP_pressure;BME280_temperature;BME280_humidity;BME280_pressure;Samples;Min_cycle;Max_cycle;Signal;HPM_P1;HPM_P2
2023/05/22 00:01:03;;;;;;;2.38;1.13;;;;;;;15.70;100.00;99699.94;6051185;23;20024;-96
2023/05/22 00:03:29;;;;;;;3.42;1.75;;;;;;;15.56;100.00;99700.69;6051808;23;20006;-96
2023/05/22 00:05:57;;;;;;;1.55;1.23;;;;;;;15.63;100.00;99722.69;6051127;23;20727;-96
2023/05/22 00:08:27;;;;;;;1.70;0.70;;;;;;;15.70;100.00;99739.09;6051486;23;20030;-94
2023/05/22 00:10:53;;;;;;;0.22;0.22;;;;;;;15.48;100.00;99705.09;6051180;23;20013;-94
2023/05/22 00:13:19;;;;;;;2.70;1.08;;;;;;;15.62;100.00;99726.72;6074611;23;20014;-95
2023/05/22 00:15:45;;;;;;;1.25;0.80;;;;;;;15.43;100.00;99732.91;6046054;23;20006;-94
2023/05/22 00:18:12;;;;;;;0.93;0.88;;;;;;;15.23;100.00;99711.19;6045622;23;20049;-95
2023/05/22 00:20:39;;;;;;;1.15;1.10;;;;;;;15.32;100.00;99719.50;6069304;23;20014;-94
2023/05/22 00:23:08;;;;;;;0.30;0.30;;;;;;;15.28;100.00;99707.72;6045185;23;20011;-93
2023/05/22 00:25:35;;;;;;;3.60;2.60;;;;;;;15.29;100.00;99726.03;6044048;23;20480;-94
2023/05/22 00:28:01;;;;;;;0.93;0.93;;;;;;;15.29;100.00;99731.59;6017647;23;20021;-94
2023/05/22 00:30:26;;;;;;;1.88;1.13;;;;;;;15.19;100.00;99718.97;6042942;23;20523;-93
2023/05/22 00:32:52;;;;;;;1.27;1.08;;;;;;;15.23;100.00;99722.34;6043342;23;20022;-94
2023/05/22 00:35:17;;;;;;;0.35;0.35;;;;;;;15.22;100.00;99720.78;6042637;23;20002;-95
2023/05/22 00:37:44;;;;;;;1.05;1.00;;;;;;;15.24;100.00;99723.91;6067211;23;20126;-94
2023/05/22 00:40:11;;;;;;;0.52;0.52;;;;;;;15.26;100.00;99713.00;6068000;23;20104;-94
2023/05/22 00:42:37;;;;;;;0.75;0.75;;;;;;;15.26;100.00;99716.56;6043959;23;20011;-93
2023/05/22 00:45:05;;;;;;;0.82;0.82;;;;;;;15.27;100.00;99706.19;6043242;23;20014;-93
2023/05/22 00:47:31;;;;;;;3.40;1.38;;;;;;;15.42;100.00;99732.13;6043706;23;20345;-93
2023/05/22 00:49:57;;;;;;;1.13;0.60;;;;;;;15.19;100.00;99721.75;6042802;23;20018;-92
2023/05/22 00:52:23;;;;;;;3.20;1.35;;;;;;;15.14;100.00;99712.00;6042254;23;20085;-93
2023/05/22 00:54:49;;;;;;;1.70;1.60;;;;;;;15.08;100.00;99710.34;6045823;23;20021;-94
2023/05/22 00:57:16;;;;;;;1.27;1.17;;;;;;;15.09;100.00;99706.28;6045775;23;20429;-96
2023/05/22 00:59:42;;;;;;;1.27;0.60;;;;;;;15.09;100.00;99700.69;6044606;23;20058;-96
2023/05/22 01:02:08;;;;;;;2.00;0.63;;;;;;;15.15;100.00;99702.38;6044702;23;20002;-95
2023/05/22 01:04:34;;;;;;;0.75;0.75;;;;;;;15.05;100.00;99686.16;6068925;23;20038;-96
2023/05/22 01:07:01;;;;;;;2.78;2.25;;;;;;;15.23;100.00;99725.16;6043879;23;20349;-95
2023/05/22 01:09:28;;;;;;;2.42;1.83;;;;;;;15.02;100.00;99698.28;6069416;23;20026;-95
2023/05/22 01:12:01;;;;;;;1.30;1.20;;;;;;;15.18;100.00;99714.63;6045001;23;20018;-95
2023/05/22 01:14:42;;;;;;;1.13;1.10;;;;;;;14.93;100.00;99694.28;6046495;23;20073;-95
2023/05/22 01:17:27;;;;;;;0.80;0.77;;;;;;;15.08;100.00;99713.16;6073759;23;20077;-95
2023/05/22 01:20:06;;;;;;;1.95;1.75;;;;;;;14.86;100.00;99682.72;6049902;23;20455;-95
2023/05/22 01:23:19;;;;;;;0.40;0.40;;;;;;;14.83;100.00;99684.44;6072634;23;20049;-96
2023/05/22 01:26:03;;;;;;;0.93;0.85;;;;;;;14.97;100.00;99712.88;6022703;23;20038;-95
2023/05/22 01:28:50;;;;;;;0.40;0.40;;;;;;;14.82;100.00;99716.41;6072893;23;20356;-94
2023/05/22 01:31:16;;;;;;;1.05;0.98;;;;;;;14.71;100.00;99699.41;6049412;23;20437;-95
2023/05/22 01:33:47;;;;;;;0.93;0.88;;;;;;;14.88;100.00;99727.69;6049799;23;20051;-96
2023/05/22 01:36:19;;;;;;;0.73;0.65;;;;;;;14.78;100.00;99720.59;6073623;23;20021;-94
2023/05/22 01:38:45;;;;;;;1.65;1.55;;;;;;;14.69;100.00;99707.47;6050399;23;20014;-95
2023/05/22 01:41:11;;;;;;;0.47;0.47;;;;;;;14.70;100.00;99720.19;6072346;23;20428;-94
2023/05/22 01:43:37;;;;;;;0.93;0.93;;;;;;;14.73;100.00;99724.03;6072283;23;20105;-94
2023/05/22 01:46:04;;;;;;;0.50;0.50;;;;;;;14.72;100.00;99728.84;6072279;23;20101;-94
2023/05/22 01:48:30;;;;;;;0.60;0.60;;;;;;;14.48;100.00;99698.09;6047860;23;20022;-95
2023/05/22 01:50:56;;;;;;;2.00;1.77;;;;;;;14.46;100.00;99694.25;6072518;23;20693;-95
2023/05/22 01:54:34;;;;;;;1.25;1.15;;;;;;;14.57;100.00;99724.41;6071819;23;20013;-96
2023/05/22 01:57:07;;;;;;;0.68;0.68;;;;;;;14.36;100.00;99689.94;5965146;23;20023;-93
2023/05/22 01:59:55;;;;;;;0.85;0.73;;;;;;;14.24;100.00;99676.91;5957823;23;20055;-93
2023/05/22 02:02:22;;;;;;;0.70;0.38;;;;;;;14.32;100.00;99698.44;6059095;23;20034;-93
2023/05/22 02:04:57;;;;;;;1.85;1.27;;;;;;;14.06;100.00;99685.38;6072267;23;20010;-94
2023/05/22 02:07:26;;;;;;;1.45;1.15;;;;;;;14.26;100.00;99713.50;6072548;23;20018;-94
2023/05/22 02:09:53;;;;;;;0.70;0.70;;;;;;;14.09;100.00;99687.22;6048587;23;20093;-95
2023/05/22 02:12:19;;;;;;;1.98;0.82;;;;;;;14.06;100.00;99699.31;6046805;23;20333;-94
2023/05/22 02:14:45;;;;;;;1.63;1.35;;;;;;;14.03;100.00;99696.19;6094840;23;20020;-94
2023/05/22 02:17:11;;;;;;;0.70;0.70;;;;;;;13.91;100.00;99680.44;6070353;23;20109;-94
2023/05/22 02:19:36;;;;;;;0.22;0.22;;;;;;;14.08;100.00;99691.22;6046932;23;20488;-94
2023/05/22 02:22:02;;;;;;;5.00;1.33;;;;;;;14.15;100.00;99685.34;6047218;23;20061;-94
2023/05/22 02:24:37;;;;;;;1.02;1.00;;;;;;;14.05;100.00;99664.28;6070589;23;20014;-93
2023/05/22 02:27:03;;;;;;;1.13;1.02;;;;;;;14.11;100.00;99668.78;6072558;23;20067;-92
2023/05/22 02:29:29;;;;;;;3.13;1.88;;;;;;;13.98;100.00;99663.41;6047634;23;20018;-95
2023/05/22 02:31:55;;;;;;;0.80;0.77;;;;;;;14.04;100.00;99671.88;6072705;23;20653;-95
2023/05/22 02:34:20;;;;;;;1.27;1.17;;;;;;;13.99;100.00;99673.28;6074222;23;20020;-94
2023/05/22 02:36:46;;;;;;;0.47;0.47;;;;;;;13.96;100.00;99665.09;6050498;23;20014;-94
2023/05/22 02:39:12;;;;;;;1.77;1.67;;;;;;;13.81;100.00;99661.41;6098774;23;20105;-93
2023/05/22 02:41:38;;;;;;;1.10;1.00;;;;;;;13.85;100.00;99656.44;6075121;23;20029;-93
2023/05/22 02:44:04;;;;;;;1.25;0.63;;;;;;;13.91;100.00;99683.22;6074705;23;20491;-93
2023/05/22 02:46:29;;;;;;;1.40;0.75;;;;;;;13.84;100.00;99657.69;6051407;23;20006;-92
2023/05/22 02:48:55;;;;;;;1.30;1.10;;;;;;;13.87;100.00;99660.31;6074927;23;20057;-94
2023/05/22 02:51:20;;;;;;;1.00;1.00;;;;;;;13.98;100.00;99666.19;6074197;23;20014;-94
2023/05/22 02:53:46;;;;;;;1.77;1.65;;;;;;;14.00;100.00;99662.91;6099206;23;20006;-94
2023/05/22 02:56:11;;;;;;;0.77;0.68;;;;;;;14.00;100.00;99654.53;6074119;23;20390;-94
2023/05/22 02:58:37;;;;;;;1.40;1.30;;;;;;;13.97;100.00;99658.28;6074598;23;20018;-94
2023/05/22 03:01:05;;;;;;;1.73;1.02;;;;;;;14.03;100.00;99671.09;6074358;23;20006;-93
2023/05/22 03:03:32;;;;;;;1.10;1.10;;;;;;;13.88;100.00;99649.94;6050693;23;20089;-93
2023/05/22 03:06:00;;;;;;;3.33;2.35;;;;;;;13.78;100.00;99640.84;6050294;23;20018;-94
2023/05/22 03:08:28;;;;;;;1.90;1.48;;;;;;;14.06;100.00;99671.41;6049921;23;20052;-95
2023/05/22 03:10:56;;;;;;;0.70;0.65;;;;;;;13.85;100.00;99660.00;6073808;23;20072;-93
2023/05/22 03:13:22;;;;;;;1.80;1.60;;;;;;;13.85;100.00;99701.06;6097086;23;20447;-93
2023/05/22 03:15:47;;;;;;;1.92;1.42;;;;;;;13.76;100.00;99701.06;6049199;23;20101;-92
2023/05/22 03:18:16;;;;;;;0.68;0.68;;;;;;;13.82;100.00;99725.06;6049574;23;20433;-93
2023/05/22 03:20:42;;;;;;;0.95;0.95;;;;;;;13.65;100.00;99715.47;6049257;23;20014;-94
2023/05/22 03:23:10;;;;;;;0.98;0.98;;;;;;;13.76;100.00;99721.34;6049075;23;20448;-94
2023/05/22 03:25:36;;;;;;;1.63;1.52;;;;;;;13.68;100.00;99714.53;6048898;23;20006;-94
2023/05/22 03:28:01;;;;;;;1.45;1.35;;;;;;;13.73;100.00;99710.38;6048871;23;20029;-94
2023/05/22 03:30:30;;;;;;;2.90;1.88;;;;;;;13.68;100.00;99708.97;6050317;23;20034;-95
2023/05/22 03:33:08;;;;;;;1.23;1.13;;;;;;;13.88;100.00;99728.00;6075119;23;20403;-95
2023/05/22 03:35:33;;;;;;;1.70;1.25;;;;;;;13.75;100.00;99708.66;6049935;23;20013;-93
2023/05/22 03:37:59;;;;;;;0.85;0.85;;;;;;;13.82;100.00;99713.94;6071466;23;20025;-95
2023/05/22 03:40:25;;;;;;;2.33;1.60;;;;;;;13.95;100.00;99722.88;6050298;23;20010;-95
2023/05/22 03:42:51;;;;;;;1.17;1.08;;;;;;;13.81;100.00;99701.22;6072862;23;20029;-94
2023/05/22 03:45:17;;;;;;;0.55;0.55;;;;;;;13.82;100.00;99704.78;6050137;23;20364;-94
2023/05/22 03:47:43;;;;;;;1.60;1.50;;;;;;;13.94;100.00;99729.72;6049173;23;20049;-93
2023/05/22 03:50:09;;;;;;;0.88;0.82;;;;;;;13.85;100.00;99701.84;6072787;23;20006;-95
2023/05/22 03:52:34;;;;;;;2.83;1.30;;;;;;;13.93;100.00;99705.84;6049351;23;20045;-95
2023/05/22 03:55:00;;;;;;;1.55;1.45;;;;;;;13.94;100.00;99703.84;6072648;23;20006;-94
2023/05/22 03:57:26;;;;;;;1.30;1.20;;;;;;;13.83;100.00;99693.16;6048516;23;20022;-95
2023/05/22 03:59:51;;;;;;;2.72;1.95;;;;;;;13.99;100.00;99711.56;6073525;23;20098;-93
2023/05/22 04:02:17;;;;;;;1.88;1.55;;;;;;;13.95;100.00;99694.22;6047928;23;20057;-94
2023/05/22 04:04:45;;;;;;;0.55;0.55;;;;;;;14.13;100.00;99726.88;6049072;23;20002;-93
2023/05/22 04:07:13;;;;;;;2.03;1.38;;;;;;;13.99;100.00;99706.75;6072156;23;20035;-94
2023/05/22 04:09:40;;;;;;;0.77;0.77;;;;;;;13.95;100.00;99686.63;6071746;23;20042;-93
2023/05/22 04:12:06;;;;;;;1.65;1.20;;;;;;;14.18;100.00;99717.88;6048831;23;20093;-93
2023/05/22 04:14:31;;;;;;;1.35;1.25;;;;;;;14.01;100.00;99690.34;6072788;23;20017;-93
2023/05/22 04:17:01;;;;;;;2.13;1.92;;;;;;;14.10;100.00;99705.50;6072749;23;20017;-96
2023/05/22 04:19:28;;;;;;;1.42;1.17;;;;;;;14.14;100.00;99698.50;6048204;23;20109;-95
2023/05/22 04:21:58;;;;;;;1.45;1.35;;;;;;;14.37;100.00;99725.75;6070572;23;20018;-92
2023/05/22 04:24:24;;;;;;;1.42;1.33;;;;;;;14.24;100.00;99696.44;6072986;23;20002;-95
2023/05/22 04:26:49;;;;;;;0.40;0.40;;;;;;;14.39;100.00;99719.69;6097126;23;20097;-94
2023/05/22 04:29:15;;;;;;;1.52;1.42;;;;;;;14.54;100.00;99723.34;6072393;23;20104;-96
2023/05/22 04:31:41;;;;;;;0.65;0.63;;;;;;;14.49;100.00;99704.44;6072327;23;20013;-93
2023/05/22 04:34:11;;;;;;;1.55;1.45;;;;;;;14.48;100.00;99697.31;6055770;23;20512;-93
2023/05/22 04:36:37;;;;;;;1.10;0.77;;;;;;;14.77;100.00;99730.22;6096013;23;20069;-93
2023/05/22 04:39:03;;;;;;;0.65;0.65;;;;;;;14.87;100.00;99728.94;6048305;23;20016;-94
2023/05/22 04:41:29;;;;;;;3.22;2.28;;;;;;;14.81;100.00;99714.84;6072892;23;20018;-93
2023/05/22 04:43:55;;;;;;;1.80;1.48;;;;;;;14.82;100.00;99716.41;6047580;23;20429;-94
2023/05/22 04:46:21;;;;;;;2.28;1.73;;;;;;;14.96;100.00;99719.75;6046835;23;20025;-95
2023/05/22 04:48:47;;;;;;;2.17;1.33;;;;;;;15.07;100.00;99725.56;6071324;23;20084;-94
2023/05/22 04:51:14;;;;;;;1.88;1.30;;;;;;;15.13;100.00;99734.81;6070262;23;20045;-94
2023/05/22 04:53:39;;;;;;;1.45;0.95;;;;;;;15.17;100.00;99727.81;6094923;23;20036;-92
2023/05/22 04:56:05;;;;;;;1.00;1.00;;;;;;;15.31;100.00;99729.13;6047137;23;20013;-93
2023/05/22 04:58:32;;;;;;;2.25;2.03;;;;;;;15.51;100.00;99740.50;6047459;23;20100;-94
2023/05/22 05:00:58;;;;;;;2.47;1.58;;;;;;;15.49;100.00;99717.03;6046979;23;20105;-95
2023/05/22 05:03:27;;;;;;;0.80;0.80;;;;;;;15.69;100.00;99726.34;6047473;23;20381;-93
2023/05/22 05:05:52;;;;;;;1.30;1.20;;;;;;;15.77;100.00;99738.69;6071814;23;20014;-93
2023/05/22 05:08:18;;;;;;;1.25;1.17;;;;;;;15.91;100.00;99730.81;6071094;23;20396;-93
2023/05/22 05:10:44;;;;;;;1.67;1.30;;;;;;;15.83;100.00;99711.63;6070076;23;20424;-93
2023/05/22 05:13:10;;;;;;;1.25;1.15;;;;;;;16.20;100.00;99747.63;6069844;23;20088;-94
2023/05/22 05:15:38;;;;;;;1.95;1.30;;;;;;;16.31;100.00;99725.41;6040646;23;20026;-93
2023/05/22 05:18:03;;;;;;;2.30;1.00;;;;;;;16.48;100.00;99746.06;6040634;23;20597;-93
2023/05/22 05:20:29;;;;;;;2.88;1.70;;;;;;;16.51;100.00;99727.53;6065705;23;20014;-95
2023/05/22 05:22:55;;;;;;;1.38;1.27;;;;;;;16.66;100.00;99728.31;6063550;23;20792;-94
2023/05/22 05:25:21;;;;;;;1.02;0.60;;;;;;;16.83;100.00;99726.50;6065804;23;20042;-93
2023/05/22 11:18:06;;;;;;;1.25;0.73;;;;;;;30.64;35.72;99704.69;6062668;23;20244;-91
2023/05/22 11:20:36;;;;;;;1.55;0.95;;;;;;;30.39;34.51;99667.47;6013925;23;20019;-90
2023/05/22 11:23:06;;;;;;;0.60;0.60;;;;;;;30.74;34.70;99694.09;6013343;23;20101;-91
2023/05/22 11:25:36;;;;;;;0.50;0.50;;;;;;;31.09;34.94;99695.72;6014199;23;20019;-91
2023/05/22 11:28:04;;;;;;;7.50;1.10;;;;;;;31.06;33.92;99693.28;6014425;23;20318;-92
2023/05/22 11:30:33;;;;;;;1.58;0.95;;;;;;;30.44;34.07;99675.09;6014698;23;20026;-92
2023/05/22 11:32:59;;;;;;;1.63;1.17;;;;;;;30.05;34.46;99665.22;6036581;23;20011;-91
2023/05/22 11:35:25;;;;;;;0.68;0.68;;;;;;;30.38;34.98;99672.44;6013701;23;20106;-91
2023/05/22 11:37:52;;;;;;;1.05;0.77;;;;;;;29.86;34.59;99644.94;6013239;23;20002;-93
2023/05/22 11:40:24;;;;;;;0.80;0.80;;;;;;;29.80;36.16;99641.53;6064581;23;20014;-96
2023/05/22 11:42:52;;;;;;;1.33;1.23;;;;;;;30.31;35.59;99667.53;6038585;23;20011;-96
2023/05/22 11:45:18;;;;;;;0.57;0.52;;;;;;;30.40;34.95;99635.41;6014369;23;20014;-96
2023/05/22 11:47:44;;;;;;;0.98;0.98;;;;;;;30.48;35.26;99639.00;6014828;23;20069;-96
2023/05/22 11:50:11;;;;;;;3.83;1.52;;;;;;;30.38;34.18;99640.94;6035215;23;20014;-96
2023/05/22 12:56:34;;;;;;;0.63;0.63;;;;;;;30.72;30.60;99630.94;6102465;23;20030;-91
2023/05/22 12:58:59;;;;;;;0.63;0.63;;;;;;;30.10;31.19;99644.22;6065645;23;20014;-91
2023/05/22 13:01:25;;;;;;;0.60;0.57;;;;;;;30.04;31.18;99635.13;6065728;23;20014;-91
2023/05/22 13:03:51;;;;;;;0.57;0.57;;;;;;;29.79;31.44;99634.31;6042081;23;20029;-91
2023/05/22 13:06:17;;;;;;;0.52;0.47;;;;;;;29.54;31.98;99625.66;6072726;23;20018;-90
2023/05/22 13:08:42;;;;;;;0.90;0.77;;;;;;;29.27;32.45;99625.41;6041985;23;20022;-92
2023/05/22 13:11:10;;;;;;;1.42;1.13;;;;;;;29.76;33.77;99649.75;6065588;23;20028;-91
2023/05/22 13:13:35;;;;;;;1.50;1.13;;;;;;;29.82;33.25;99644.56;6041188;23;20011;-90
2023/05/22 13:16:01;;;;;;;0.75;0.73;;;;;;;29.41;32.88;99640.97;6042155;23;20079;-91
2023/05/22 13:18:27;;;;;;;3.13;0.63;;;;;;;28.65;33.97;99628.94;6065825;23;20038;-91
2023/05/22 13:20:55;;;;;;;0.40;0.40;;;;;;;28.38;35.05;99622.13;6091642;23;20038;-91
2023/05/22 13:23:20;;;;;;;1.17;0.68;;;;;;;28.17;35.28;99602.34;6072582;23;20013;-94
2023/05/22 13:25:46;;;;;;;1.42;1.13;;;;;;;28.17;34.82;99608.06;6057649;23;20014;-95
2023/05/22 15:01:59;;;;;;;1.00;1.00;;;;;;;29.10;36.12;99551.00;6134985;23;20020;-95
2023/05/22 15:04:28;;;;;;;1.55;1.25;;;;;;;29.42;36.59;99573.16;6089156;23;20021;-96
2023/05/22 15:06:54;;;;;;;0.65;0.55;;;;;;;29.33;35.83;99543.09;6123034;23;20325;-92
2023/05/22 15:09:19;;;;;;;0.47;0.47;;;;;;;29.44;34.44;99530.50;6124582;23;20016;-90
2023/05/22 15:11:47;;;;;;;1.20;1.10;;;;;;;29.46;35.01;99562.09;6098849;23;20013;-90
2023/05/22 15:14:13;;;;;;;0.88;0.88;;;;;;;29.49;35.15;99541.69;6123745;23;20052;-92
2023/05/22 15:16:39;;;;;;;0.50;0.50;;;;;;;29.22;34.80;99532.09;6153328;23;20064;-96
2023/05/22 15:19:06;;;;;;;2.83;1.33;;;;;;;29.30;39.37;99547.13;6105361;23;20017;-95
2023/05/22 15:21:32;;;;;;;1.05;0.95;;;;;;;29.40;43.32;99559.44;6090169;23;20024;-90
2023/05/22 15:23:57;;;;;;;0.68;0.68;;;;;;;28.90;42.81;99526.34;6153423;23;20009;-95
2023/05/22 15:26:23;;;;;;;0.45;0.45;;;;;;;28.70;43.42;99550.97;6078978;23;20040;-95
2023/05/22 15:28:49;;;;;;;0.90;0.65;;;;;;;28.36;43.28;99537.13;6127253;23;20318;-95
2023/05/22 15:31:15;;;;;;;3.05;0.75;;;;;;;28.26;42.65;99516.22;6079765;23;20423;-95
2023/05/22 15:33:40;;;;;;;1.05;1.00;;;;;;;28.15;43.27;99525.94;6102868;23;20115;-91
2023/05/22 15:36:06;;;;;;;0.85;0.70;;;;;;;28.05;45.64;99533.53;6124898;23;20017;-91
2023/05/22 15:38:32;;;;;;;1.13;1.02;;;;;;;27.95;47.57;99531.78;6123623;23;20024;-91
2023/05/22 15:40:57;;;;;;;0.85;0.85;;;;;;;28.00;48.14;99545.09;6124965;23;20067;-90
2023/05/22 15:43:24;;;;;;;0.77;0.77;;;;;;;27.79;49.72;99517.53;6124077;23;20018;-91
2023/05/22 15:45:50;;;;;;;1.42;1.10;;;;;;;27.94;50.22;99528.22;6125230;23;20455;-90
2023/05/22 15:48:16;;;;;;;2.15;1.33;;;;;;;27.85;51.28;99519.44;6150384;23;20009;-91
2023/05/22 15:50:42;;;;;;;0.30;0.28;;;;;;;27.91;53.51;99517.16;6124592;23;20388;-91
2023/05/22 15:53:07;;;;;;;1.48;0.85;;;;;;;28.11;51.83;99524.78;6124083;23;20589;-91
2023/05/22 15:55:33;;;;;;;1.02;0.93;;;;;;;28.00;50.00;99522.28;6108298;23;20024;-90
2023/05/22 15:58:00;;;;;;;0.63;0.63;;;;;;;27.99;49.80;99495.88;6095077;23;20072;-91
2023/05/22 16:00:26;;;;;;;1.85;1.05;;;;;;;28.01;47.83;99520.97;6071222;23;20088;-90
2023/05/22 16:02:52;;;;;;;2.15;1.05;;;;;;;28.08;45.54;99528.75;6121965;23;20433;-91
2023/05/22 16:05:17;;;;;;;0.22;0.22;;;;;;;27.83;46.52;99506.53;6094395;23;20428;-90
2023/05/22 16:07:43;;;;;;;1.55;0.75;;;;;;;27.78;48.19;99489.63;6095096;23;20009;-92
2023/05/22 16:10:09;;;;;;;1.50;0.60;;;;;;;27.80;46.42;99496.28;6095303;23;20279;-92
2023/05/22 16:12:35;;;;;;;2.30;0.95;;;;;;;27.90;46.96;99527.06;6120864;23;20002;-92
2023/05/22 16:15:01;;;;;;;2.00;0.75;;;;;;;27.76;46.35;99507.28;6074836;23;20077;-96
2023/05/22 16:17:26;;;;;;;0.28;0.28;;;;;;;27.74;42.38;99520.59;6054867;23;20010;-96
2023/05/22 16:19:52;;;;;;;0.60;0.60;;;;;;;27.52;41.63;99499.28;6055223;23;20040;-96
2023/05/22 16:22:20;;;;;;;0.52;0.50;;;;;;;27.59;41.82;99480.69;6056107;23;20010;-96
2023/05/22 16:24:46;;;;;;;0.80;0.80;;;;;;;27.51;41.42;99497.78;6057713;23;20022;-96
2023/05/22 16:27:12;;;;;;;0.70;0.70;;;;;;;27.59;42.11;99503.47;6082721;23;20015;-96
2023/05/22 16:29:37;;;;;;;0.95;0.90;;;;;;;27.41;40.78;99498.88;6061205;23;20014;-96
2023/05/22 16:32:03;;;;;;;0.65;0.65;;;;;;;27.26;40.58;99502.44;6074151;23;20009;-92
2023/05/22 16:34:32;;;;;;;0.40;0.40;;;;;;;27.07;40.90;99517.00;6071215;23;20471;-92
2023/05/22 16:36:58;;;;;;;0.52;0.52;;;;;;;27.05;43.61;99510.38;6120724;23;20367;-91
2023/05/22 16:39:25;;;;;;;0.88;0.82;;;;;;;27.03;45.37;99533.69;6071151;23;20010;-93
2023/05/22 16:41:51;;;;;;;1.00;0.90;;;;;;;26.77;46.37;99511.91;6095793;23;20021;-96
2023/05/22 16:44:17;;;;;;;0.77;0.77;;;;;;;26.50;46.03;99498.50;6083457;23;20070;-96
2023/05/22 16:46:43;;;;;;;1.52;1.20;;;;;;;26.23;46.67;99501.59;6088506;23;20024;-96
2023/05/22 16:49:08;;;;;;;0.82;0.80;;;;;;;26.06;47.44;99506.16;6064847;23;20092;-96
2023/05/22 16:51:35;;;;;;;1.05;0.95;;;;;;;26.15;48.88;99542.59;6067539;23;20013;-96
2023/05/22 16:54:01;;;;;;;0.82;0.82;;;;;;;25.95;48.75;99536.41;6088537;23;20097;-96
2023/05/22 16:56:27;;;;;;;0.73;0.70;;;;;;;25.73;50.08;99519.16;6065842;23;20010;-96
2023/05/22 16:58:52;;;;;;;0.47;0.43;;;;;;;25.65;51.07;99519.06;6065380;23;20041;-96
2023/05/22 17:01:20;;;;;;;0.63;0.63;;;;;;;25.56;51.64;99504.63;6050857;23;20010;-96
2023/05/22 17:03:46;;;;;;;1.98;1.80;;;;;;;25.44;52.63;99510.50;6051819;23;20022;-96
2023/05/22 17:06:11;;;;;;;3.65;2.97;;;;;;;25.42;53.51;99515.22;6053924;23;20066;-96
2023/05/22 17:08:37;;;;;;;3.15;2.15;;;;;;;25.42;54.57;99518.06;6055044;23;20018;-96
2023/05/22 17:11:03;;;;;;;3.15;2.08;;;;;;;25.26;56.23;99522.06;6084233;23;20041;-96
2023/05/22 17:13:36;;;;;;;1.52;1.42;;;;;;;25.13;56.96;99520.03;6068898;23;20002;-96
2023/05/22 17:16:04;;;;;;;1.52;1.20;;;;;;;25.08;58.53;99527.34;6092962;23;20035;-96
2023/05/22 17:18:36;;;;;;;1.35;1.13;;;;;;;25.18;58.29;99561.72;6069728;23;20038;-96
2023/05/22 17:21:03;;;;;;;2.70;1.90;;;;;;;24.88;57.79;99532.97;6070658;23;20012;-96
2023/05/22 17:23:30;;;;;;;1.00;1.00;;;;;;;24.73;59.29;99533.50;6069218;23;20106;-96
2023/05/22 17:25:59;;;;;;;1.65;1.08;;;;;;;24.65;60.19;99524.13;6095135;23;20030;-96
2023/05/22 17:28:26;;;;;;;0.77;0.77;;;;;;;24.58;61.55;99530.47;6093002;23;20015;-96
2023/05/22 17:30:55;;;;;;;0.47;0.47;;;;;;;24.56;60.66;99530.25;6070984;23;20034;-96
2023/05/22 17:33:28;;;;;;;0.63;0.63;;;;;;;24.47;61.89;99542.00;6117653;23;20022;-96
2023/05/22 17:36:13;;;;;;;1.77;1.63;;;;;;;24.30;62.79;99530.25;6070945;23;20014;-96
2023/05/22 17:38:41;;;;;;;0.47;0.47;;;;;;;24.31;64.03;99549.53;6065035;23;20100;-92
2023/05/22 17:41:10;;;;;;;0.75;0.75;;;;;;;24.22;65.49;99563.38;6115936;23;20018;-96
2023/05/22 17:43:37;;;;;;;0.68;0.68;;;;;;;24.03;66.46;99544.34;6091340;23;20014;-96
2023/05/22 17:46:03;;;;;;;2.03;1.17;;;;;;;24.23;67.24;99581.91;6067971;23;20010;-96
2023/05/22 17:48:29;;;;;;;1.13;0.95;;;;;;;23.95;68.38;99546.28;6068531;23;20030;-96
2023/05/22 17:50:55;;;;;;;0.50;0.50;;;;;;;23.91;69.44;99545.84;6068478;23;20042;-96
2023/05/22 17:53:25;;;;;;;1.30;1.00;;;;;;;23.76;69.63;99539.94;6092927;23;20017;-96
2023/05/22 17:55:53;;;;;;;0.65;0.40;;;;;;;23.86;70.49;99558.03;6111617;23;20019;-91
2023/05/22 17:58:19;;;;;;;1.27;1.17;;;;;;;23.76;70.46;99571.09;6091003;23;20085;-93
2023/05/22 18:00:46;;;;;;;1.40;1.10;;;;;;;23.50;70.44;99545.50;6089794;23;20074;-92
2023/05/22 18:03:11;;;;;;;1.33;1.13;;;;;;;23.43;71.06;99534.78;6091302;23;20066;-91
2023/05/22 18:05:37;;;;;;;1.35;1.25;;;;;;;23.37;71.49;99545.44;6093039;23;20018;-93
2023/05/22 18:08:11;;;;;;;0.82;0.80;;;;;;;23.29;72.08;99536.78;6103578;23;20111;-96
2023/05/22 18:10:48;;;;;;;2.40;0.90;;;;;;;23.17;77.21;99530.50;6122430;23;20010;-96
2023/05/22 18:13:18;;;;;;;0.68;0.63;;;;;;;23.12;83.39;99530.59;6095143;23;20022;-95
2023/05/22 18:15:44;;;;;;;1.40;0.93;;;;;;;23.01;90.36;99533.59;6039024;23;20022;-96
2023/05/22 18:18:17;;;;;;;0.30;0.30;;;;;;;23.10;89.35;99548.09;6080075;23;20113;-96
2023/05/22 18:38:12;;;;;;;1.42;1.15;;;;;;;22.70;95.20;99568.94;6088072;23;20034;-88
2023/05/22 18:40:40;;;;;;;1.05;0.90;;;;;;;22.58;97.61;99573.16;6063219;23;20022;-88
2023/05/22 18:43:06;;;;;;;1.13;1.00;;;;;;;22.32;97.26;99554.66;6015840;23;20526;-88
2023/05/22 18:45:32;;;;;;;1.60;0.77;;;;;;;22.41;98.48;99572.56;6039843;23;20014;-89
2023/05/22 18:47:59;;;;;;;0.73;0.70;;;;;;;22.15;97.75;99556.91;6016865;23;20015;-89
2023/05/22 18:50:25;;;;;;;1.55;0.88;;;;;;;22.27;98.60;99586.59;6063328;23;20018;-89
2023/05/22 20:09:25;;;;;;;1.80;1.67;;;;;;;20.19;100.00;99600.69;6135095;23;20021;-90
2023/05/22 20:11:51;;;;;;;1.35;1.23;;;;;;;20.04;100.00;99588.94;6097217;23;20024;-89
2023/05/22 20:14:16;;;;;;;1.33;1.23;;;;;;;20.14;100.00;99624.00;6099001;23;20014;-89
2023/05/22 20:16:42;;;;;;;0.65;0.65;;;;;;;19.89;100.00;99594.06;6075804;23;20019;-90
2023/05/22 20:19:20;;;;;;;0.65;0.65;;;;;;;19.86;100.00;99592.25;6096334;23;20550;-89
2023/05/22 20:21:46;;;;;;;1.75;1.20;;;;;;;19.99;100.00;99623.50;6098143;23;20266;-90
2023/05/22 20:24:23;;;;;;;1.52;1.25;;;;;;;19.82;100.00;99606.59;6095356;23;20010;-90
2023/05/22 20:26:50;;;;;;;0.60;0.60;;;;;;;19.91;100.00;99622.47;6075130;23;20028;-89
2023/05/22 20:29:16;;;;;;;1.83;1.08;;;;;;;19.77;100.00;99596.13;6097357;23;20497;-89
2023/05/22 20:31:42;;;;;;;1.20;1.08;;;;;;;19.69;100.00;99605.56;6097240;23;20018;-89
2023/05/22 20:34:08;;;;;;;1.77;1.52;;;;;;;19.74;100.00;99607.59;6072704;23;20014;-89
2023/05/22 20:36:34;;;;;;;0.98;0.98;;;;;;;19.73;100.00;99617.34;6098755;23;20028;-89
2023/05/22 20:39:00;;;;;;;2.00;1.73;;;;;;;19.43;100.00;99595.31;6074500;23;20062;-90
2023/05/22 20:41:26;;;;;;;1.70;1.60;;;;;;;19.54;100.00;99617.81;6099583;23;20005;-91
2023/05/22 20:43:53;;;;;;;1.65;1.30;;;;;;;19.30;100.00;99580.91;6074472;23;20022;-90
